Terminal Aerodrome Forecast
Issued by NWS

Home | Current Version | Previous Version | Text Only | Print | Product List | Glossary On
Versions: 1 2 3 4 5 6 7 8 9 10 11 12 13 14 15 16
000
FTUS46 KLOX 170500
TAFBUR
TAF
KBUR 170524Z 1706/1806 VRB03KT P6SM SKC
     FM171100 VRB03KT 4SM BR BKN008
     FM171500 VRB03KT P6SM OVC015
     FM171800 VRB03KT P6SM SKC
     FM172000 18009KT P6SM SKC
     FM180300 VRB03KT P6SM BKN012=

USA.gov is the U.S. government's official web portal to all federal, state and local government web resources and services.